Time;durP1;ratioP1;P1;durP2;ratioP2;P2;SDS_P1;SDS_P2;PMS_P1;PMS_P2;Temp;Humidity;BMP_temperature;BMP_pressure;BME280_temperature;BME280_humidity;BME280_pressure;Samples;Min_cycle;Max_cycle;Signal;HPM_P1;HPM_P2
2023/04/27 00:02:20;;;;;;;3.63;3.00;;;5.30;69.30;;;4.72;65.37;98107.09;5035003;28;20473;-71
2023/04/27 00:04:47;;;;;;;5.10;2.73;;;5.30;69.70;;;4.42;65.98;98059.53;5056337;28;20452;-72
2023/04/27 00:07:14;;;;;;;6.17;3.00;;;5.30;70.50;;;4.81;65.01;98103.31;5053437;28;20455;-72
2023/04/27 00:09:42;;;;;;;4.27;3.33;;;5.40;70.10;;;4.54;66.67;98100.97;5043905;28;20464;-72
2023/04/27 00:12:09;;;;;;;2.47;2.00;;;5.20;70.40;;;4.50;66.60;98102.34;5061396;28;20455;-72
2023/04/27 00:14:37;;;;;;;4.87;3.70;;;5.10;70.90;;;4.43;66.99;98087.97;5048329;28;20459;-72
2023/04/27 00:17:05;;;;;;;6.40;3.40;;;5.10;71.40;;;4.55;66.41;98101.81;5048625;28;20447;-72
2023/04/27 00:19:33;;;;;;;5.33;3.23;;;5.10;71.50;;;4.52;67.44;98094.97;5052517;28;20484;-72
2023/04/27 00:22:00;;;;;;;3.70;3.03;;;5.10;72.10;;;4.59;67.24;98102.28;5045231;28;20591;-72
2023/04/27 00:24:27;;;;;;;4.13;2.60;;;5.20;72.10;;;4.54;66.93;98098.28;5031241;28;20440;-72
2023/04/27 00:26:55;;;;;;;3.73;3.30;;;5.20;72.30;;;4.65;67.58;98101.59;5046624;28;20486;-73
2023/04/27 00:29:22;;;;;;;2.97;2.73;;;5.20;72.70;;;4.80;65.57;98089.13;5048993;28;20778;-73
2023/04/27 00:31:51;;;;;;;5.10;3.70;;;5.30;71.80;;;4.78;65.29;98075.09;5047838;28;20455;-72
2023/04/27 00:34:19;;;;;;;2.60;2.40;;;5.30;71.30;;;4.73;65.19;98090.00;5046136;28;20463;-73
2023/04/27 00:36:47;;;;;;;5.90;3.50;;;5.40;70.50;;;4.81;65.16;98085.44;5046951;28;20680;-71
2023/04/27 00:39:15;;;;;;;7.90;3.23;;;5.40;70.50;;;4.80;63.98;98070.38;5058273;28;20461;-72
2023/04/27 00:41:42;;;;;;;4.00;3.20;;;5.50;69.80;;;4.87;63.96;98080.38;5037432;28;20467;-72
2023/04/27 00:44:09;;;;;;;5.13;3.13;;;5.50;68.90;;;4.95;63.50;98085.69;5052045;28;20866;-72
2023/04/27 00:46:37;;;;;;;4.93;3.07;;;5.60;69.30;;;4.50;63.18;98011.34;5044313;28;20456;-72
2023/04/27 00:49:05;;;;;;;4.73;3.23;;;5.60;69.00;;;5.05;63.45;98086.28;5054270;28;20543;-72
2023/04/27 00:51:33;;;;;;;4.13;2.60;;;5.60;68.90;;;5.04;63.14;98089.16;5034807;28;20459;-72
2023/04/27 00:54:01;;;;;;;3.50;2.47;;;5.60;68.20;;;4.94;63.35;98078.66;5067122;28;20524;-71
2023/04/27 00:56:29;;;;;;;3.40;2.40;;;5.60;68.40;;;4.91;63.32;98077.16;5049857;28;20488;-73
2023/04/27 00:58:56;;;;;;;3.63;2.77;;;5.60;68.40;;;5.00;62.63;98077.94;5055756;28;20469;-71
2023/04/27 01:01:24;;;;;;;4.17;3.13;;;5.60;68.40;;;5.04;62.50;98073.06;5065691;28;20468;-72
2023/04/27 01:03:51;;;;;;;3.30;2.73;;;5.70;68.10;;;5.00;62.53;98075.28;5069444;28;20460;-72
2023/04/27 01:06:18;;;;;;;3.53;2.80;;;5.70;68.00;;;4.89;63.31;98059.59;5070174;28;20455;-71
2023/04/27 01:08:47;;;;;;;4.73;3.33;;;5.70;68.20;;;4.99;62.65;98086.16;5039857;28;20808;-71
2023/04/27 01:11:14;;;;;;;3.67;3.10;;;5.70;67.90;;;4.80;63.21;98066.88;5044265;28;21301;-71
2023/04/27 01:13:42;;;;;;;2.90;2.60;;;5.60;67.90;;;4.87;62.74;98086.56;5028684;28;21030;-70
2023/04/27 01:16:09;;;;;;;5.13;3.07;;;5.60;67.70;;;4.26;63.56;98004.31;5051902;28;20461;-71
2023/04/27 01:18:39;;;;;;;3.83;2.63;;;5.50;67.60;;;4.70;63.41;98075.13;5047650;28;20550;-72
2023/04/27 01:21:06;;;;;;;2.87;2.13;;;5.50;67.90;;;4.70;64.20;98075.13;5045705;28;20485;-70
2023/04/27 01:23:35;;;;;;;6.33;2.30;;;5.50;68.40;;;4.56;64.49;98075.88;5035680;28;20550;-72
2023/04/27 01:26:02;;;;;;;3.90;2.47;;;5.30;68.50;;;4.50;65.04;98078.25;5053854;28;20452;-72
2023/04/27 01:28:30;;;;;;;5.07;3.40;;;5.30;69.10;;;4.40;65.09;98072.28;5036537;28;20454;-72
2023/04/27 01:30:57;;;;;;;3.30;2.20;;;5.20;69.20;;;4.47;65.33;98078.56;5017497;28;20876;-72
2023/04/27 01:33:24;;;;;;;5.00;2.97;;;5.20;69.50;;;4.41;65.88;98073.94;5038886;28;20851;-73
2023/04/27 01:35:52;;;;;;;3.80;2.67;;;5.20;69.60;;;4.49;65.66;98086.44;5046314;28;20462;-73
2023/04/27 01:38:19;;;;;;;6.00;3.00;;;5.20;69.60;;;4.51;65.26;98082.59;5045406;28;20461;-73
2023/04/27 01:40:48;;;;;;;2.93;2.13;;;5.20;69.70;;;4.57;64.77;98089.09;5039963;28;20460;-72
2023/04/27 01:43:15;;;;;;;3.23;2.30;;;5.30;69.80;;;4.53;65.02;98077.91;5043528;28;20506;-72
2023/04/27 01:45:42;;;;;;;3.30;2.90;;;5.30;69.70;;;4.57;65.54;98090.91;5028636;28;21037;-73
2023/04/27 01:48:10;;;;;;;5.10;3.77;;;5.20;69.70;;;3.99;65.75;98016.28;5049135;28;20546;-72
2023/04/27 01:50:37;;;;;;;2.80;2.50;;;5.20;70.30;;;4.28;65.44;98081.69;5024918;28;20508;-72
2023/04/27 01:53:05;;;;;;;7.20;3.30;;;5.10;69.90;;;3.72;65.95;98016.53;5030097;28;20523;-71
2023/04/27 01:55:32;;;;;;;6.83;2.90;;;5.00;70.00;;;4.25;66.60;98094.41;5045398;28;20462;-73
2023/04/27 01:58:03;;;;;;;4.93;2.50;;;5.00;70.10;;;4.23;66.11;98079.53;5044762;28;20516;-72
2023/04/27 02:00:31;;;;;;;5.73;3.07;;;5.00;70.60;;;4.36;66.17;98089.69;5045596;28;20462;-72
2023/04/27 02:02:59;;;;;;;5.50;2.63;;;5.00;70.80;;;4.33;66.31;98087.38;5044308;28;20478;-72
2023/04/27 02:05:26;;;;;;;5.30;2.60;;;5.00;71.10;;;4.28;66.55;98092.38;5034819;28;21073;-72
2023/04/27 02:07:54;;;;;;;6.40;3.10;;;5.00;70.70;;;4.00;66.45;98068.72;5026626;28;20449;-72
2023/04/27 02:10:22;;;;;;;3.23;2.13;;;5.00;71.00;;;3.74;66.90;98019.88;5022958;28;20519;-72
2023/04/27 02:12:49;;;;;;;4.33;3.03;;;4.90;71.10;;;4.13;67.29;98082.41;5028051;28;20456;-72
2023/04/27 02:15:19;;;;;;;3.10;2.27;;;4.80;71.10;;;4.17;67.05;98082.91;5055768;28;20455;-72
2023/04/27 02:17:47;;;;;;;3.30;3.00;;;4.90;71.20;;;4.24;66.68;98079.34;5045795;28;20473;-73
2023/04/27 02:20:14;;;;;;;2.30;2.10;;;4.90;71.20;;;4.16;66.67;98081.22;5053822;28;20736;-73
2023/04/27 02:22:43;;;;;;;3.70;2.47;;;4.90;71.50;;;4.15;67.32;98091.06;5038878;28;20479;-72
2023/04/27 02:25:11;;;;;;;2.20;2.00;;;4.90;71.30;;;3.78;67.03;98026.53;5049809;28;20458;-72
2023/04/27 02:27:39;;;;;;;4.70;3.10;;;4.90;71.60;;;4.22;66.79;98078.69;5039186;28;20463;-74
2023/04/27 02:30:09;;;;;;;4.20;2.50;;;4.90;71.80;;;4.01;67.30;98083.78;5047730;28;20457;-73
2023/04/27 02:32:38;;;;;;;3.30;2.50;;;4.80;71.70;;;4.04;67.82;98070.91;5024780;28;20465;-72
2023/04/27 02:35:07;;;;;;;2.90;2.30;;;4.80;71.80;;;4.14;67.23;98094.75;5030496;28;20810;-72
2023/04/27 02:37:35;;;;;;;3.13;2.83;;;4.80;71.90;;;4.14;67.48;98110.00;5051146;28;20545;-72
2023/04/27 02:40:06;;;;;;;4.73;2.37;;;4.80;71.90;;;3.55;67.70;98013.06;5031895;28;20508;-72
2023/04/27 02:42:33;;;;;;;6.20;2.60;;;4.80;72.00;;;4.11;67.54;98090.63;5050436;28;20472;-72
2023/04/27 02:45:00;;;;;;;3.23;2.20;;;4.80;71.90;;;4.08;67.30;98090.13;5054838;28;20594;-73
2023/04/27 02:47:27;;;;;;;5.40;2.10;;;4.80;71.90;;;3.92;68.03;98089.16;5026059;28;20454;-72
2023/04/27 02:49:57;;;;;;;3.60;2.43;;;4.80;72.40;;;3.97;67.98;98099.34;5049009;28;20455;-72
2023/04/27 02:52:24;;;;;;;2.50;1.93;;;4.60;72.50;;;3.93;69.03;98098.84;5045274;28;20470;-73
2023/04/27 02:54:52;;;;;;;9.70;2.37;;;4.50;72.90;;;3.95;68.30;98112.06;5048198;28;20444;-73
2023/04/27 02:57:19;;;;;;;3.20;2.50;;;4.50;73.00;;;2.37;67.49;97845.22;5059883;28;20529;-73
2023/04/27 02:59:46;;;;;;;5.47;3.10;;;4.60;72.50;;;3.56;67.66;98021.91;5028452;28;20496;-72
2023/04/27 03:02:13;;;;;;;3.53;2.27;;;4.70;72.70;;;3.97;68.00;98105.50;5026432;28;20877;-71
2023/04/27 03:04:40;;;;;;;3.60;2.30;;;4.70;72.70;;;3.77;67.13;98091.69;5036709;28;20478;-70
2023/04/27 03:07:10;;;;;;;3.07;2.73;;;4.60;71.90;;;3.47;67.55;98039.81;5034571;28;20508;-72
2023/04/27 03:09:37;;;;;;;4.77;2.90;;;4.60;71.90;;;3.82;67.22;98101.88;5066343;28;20457;-72
2023/04/27 03:12:05;;;;;;;4.50;2.23;;;4.60;71.80;;;3.90;67.18;98101.00;5016719;28;20456;-71
2023/04/27 03:14:32;;;;;;;11.77;2.50;;;4.60;71.80;;;3.90;67.18;98091.16;5035351;28;20534;-71
2023/04/27 03:17:02;;;;;;;6.00;2.50;;;4.60;71.90;;;3.89;66.95;98085.97;5051814;28;20568;-70
2023/04/27 03:19:29;;;;;;;2.90;2.20;;;4.60;72.00;;;3.97;67.04;98100.16;5037503;28;20452;-72
2023/04/27 03:21:56;;;;;;;2.53;1.90;;;4.60;72.10;;;3.91;67.72;98094.66;5022619;28;20450;-72
2023/04/27 03:24:25;;;;;;;3.87;2.37;;;4.60;72.40;;;4.00;67.94;98109.69;5052536;28;20463;-70
2023/04/27 03:26:53;;;;;;;3.27;2.20;;;4.60;72.90;;;3.88;68.56;98106.56;5029218;28;20504;-72
2023/04/27 03:29:20;;;;;;;3.50;2.80;;;4.60;73.20;;;3.50;68.21;98055.50;5024717;28;20457;-72
2023/04/27 03:31:47;;;;;;;2.93;2.10;;;4.60;72.80;;;3.14;69.00;98013.13;5050068;28;20458;-73
2023/04/27 03:34:14;;;;;;;2.87;2.33;;;4.60;72.90;;;3.80;69.27;98114.56;5027184;28;20516;-72
2023/04/27 03:36:42;;;;;;;3.23;2.83;;;4.60;73.10;;;3.83;68.96;98100.84;5027111;28;20470;-73
2023/04/27 03:39:09;;;;;;;2.83;2.50;;;4.60;73.50;;;3.73;69.69;98108.25;5033462;28;20433;-73
2023/04/27 03:41:38;;;;;;;2.87;2.67;;;4.50;73.80;;;3.71;69.83;98103.06;5056610;28;20791;-74
2023/04/27 03:44:05;;;;;;;3.63;3.27;;;4.50;74.10;;;3.90;69.85;98119.72;5029699;28;20477;-72
2023/04/27 03:46:33;;;;;;;2.50;2.07;;;4.50;74.20;;;3.94;70.00;98121.03;5054407;28;20517;-73
2023/04/27 03:49:00;;;;;;;2.93;2.63;;;4.60;74.30;;;3.95;70.11;98128.09;5031364;28;20462;-72
2023/04/27 03:51:30;;;;;;;2.80;2.33;;;4.60;74.30;;;3.87;69.50;98104.03;5062927;28;20448;-73
2023/04/27 03:53:58;;;;;;;3.13;2.50;;;4.60;74.30;;;3.99;69.71;98134.75;5059643;28;20437;-72
2023/04/27 03:56:25;;;;;;;3.30;3.00;;;4.70;74.10;;;3.90;69.28;98125.91;5060718;28;20450;-72
2023/04/27 03:58:54;;;;;;;5.87;2.60;;;4.70;74.20;;;3.79;69.07;98123.59;5061923;28;20450;-74
2023/04/27 04:01:23;;;;;;;3.63;2.80;;;4.70;74.10;;;4.03;69.65;98136.06;5032984;28;20552;-74
2023/04/27 04:03:51;;;;;;;3.00;2.70;;;4.70;74.20;;;4.06;70.07;98140.25;5053985;28;20484;-74
2023/04/27 04:06:18;;;;;;;2.97;2.77;;;4.70;74.50;;;3.89;69.30;98129.59;5060837;28;20908;-74
2023/04/27 04:08:45;;;;;;;2.90;2.70;;;4.70;73.80;;;3.96;69.06;98135.09;5027688;28;20492;-74
2023/04/27 04:11:12;;;;;;;2.80;2.43;;;4.70;74.00;;;3.99;69.59;98142.78;5045166;28;20455;-75
2023/04/27 04:13:40;;;;;;;2.50;2.30;;;4.70;74.20;;;4.06;69.23;98148.28;5029151;28;21193;-74
2023/04/27 04:16:10;;;;;;;5.03;2.70;;;4.70;74.10;;;3.99;69.46;98133.91;5043183;28;20482;-77
2023/04/27 04:18:37;;;;;;;2.57;2.30;;;4.70;74.20;;;4.15;68.90;98139.22;5040579;28;20459;-73
2023/04/27 04:21:04;;;;;;;3.40;2.57;;;4.80;74.10;;;3.60;69.26;98064.16;5037926;28;20462;-75
2023/04/27 04:23:32;;;;;;;4.80;2.70;;;4.70;74.10;;;4.21;69.02;98135.03;5030254;28;20461;-75
2023/04/27 04:26:00;;;;;;;3.10;2.37;;;4.80;74.00;;;4.23;68.31;98115.13;5038384;28;20471;-74
2023/04/27 04:28:28;;;;;;;2.60;2.00;;;4.80;73.80;;;4.30;68.65;98120.63;5049667;28;20449;-73
2023/04/27 04:30:55;;;;;;;3.17;2.73;;;4.90;73.70;;;4.34;68.27;98121.13;5045969;28;20471;-72
2023/04/27 04:33:25;;;;;;;3.50;2.27;;;5.00;73.50;;;4.37;68.08;98116.25;5045989;28;20458;-73
2023/04/27 04:35:52;;;;;;;2.40;2.20;;;5.00;73.60;;;4.21;68.17;98103.78;5045317;28;20446;-73
2023/04/27 04:38:22;;;;;;;4.40;3.00;;;5.00;73.60;;;4.37;68.31;98126.13;5047156;28;20459;-73
2023/04/27 04:40:51;;;;;;;6.30;2.60;;;5.00;73.60;;;4.53;68.28;98136.75;5042514;28;20506;-74
2023/04/27 04:43:18;;;;;;;3.70;2.77;;;5.10;73.70;;;4.39;67.60;98108.06;5039142;28;20498;-75
2023/04/27 04:45:47;;;;;;;2.60;2.13;;;5.20;73.50;;;4.59;67.94;98135.25;5052106;28;20456;-73
2023/04/27 04:48:15;;;;;;;3.20;2.87;;;5.20;73.40;;;4.45;68.30;98110.03;5040104;28;20467;-75
2023/04/27 04:50:44;;;;;;;4.00;2.77;;;5.20;73.40;;;4.64;67.74;98143.56;5038681;28;20468;-74
2023/04/27 04:53:11;;;;;;;3.40;2.73;;;5.30;73.50;;;4.64;67.03;98142.75;5006263;28;20446;-73
2023/04/27 04:55:38;;;;;;;4.37;3.00;;;5.30;73.20;;;4.76;66.58;98127.94;5049683;28;20487;-74
2023/04/27 04:58:06;;;;;;;3.37;2.90;;;5.30;73.20;;;4.64;67.33;98142.75;5038099;28;20445;-75
2023/04/27 05:00:33;;;;;;;5.27;3.07;;;5.30;73.00;;;4.74;66.52;98132.66;5055786;28;20580;-71
2023/04/27 05:03:00;;;;;;;5.07;3.30;;;5.40;72.80;;;4.66;66.72;98130.03;5039051;28;20482;-73
2023/04/27 05:05:28;;;;;;;4.70;2.93;;;5.40;72.60;;;4.77;66.21;98129.59;5031623;28;20480;-74
2023/04/27 05:07:56;;;;;;;2.93;2.67;;;5.50;72.70;;;4.83;66.58;98136.09;5039849;28;20693;-75
2023/04/27 05:10:24;;;;;;;4.80;3.07;;;5.50;72.40;;;4.90;65.99;98137.09;5052723;28;20466;-73
2023/04/27 05:12:51;;;;;;;4.70;3.40;;;5.60;72.30;;;4.80;66.58;98137.31;5047949;28;20553;-72
2023/04/27 05:15:18;;;;;;;5.07;3.90;;;5.60;72.00;;;4.87;66.17;98142.81;5038860;28;20448;-74
2023/04/27 05:17:45;;;;;;;4.60;4.10;;;5.60;72.00;;;4.98;65.48;98128.19;5025897;28;20460;-75
2023/04/27 05:20:13;;;;;;;5.23;3.67;;;5.70;72.10;;;5.30;65.20;98137.00;5028249;28;20518;-74
2023/04/27 05:22:40;;;;;;;3.23;2.93;;;5.90;72.10;;;5.43;65.30;98146.28;5067356;28;21136;-76
2023/04/27 05:25:10;;;;;;;2.93;2.30;;;6.00;71.90;;;5.46;64.25;98143.25;5030378;28;20542;-76
2023/04/27 05:27:37;;;;;;;4.67;2.50;;;6.10;71.10;;;5.43;63.75;98151.66;5046981;28;21284;-78
2023/04/27 05:30:05;;;;;;;4.00;3.50;;;6.10;70.80;;;5.38;64.86;98147.66;5052362;28;20508;-76
2023/04/27 05:32:35;;;;;;;2.50;2.30;;;6.10;71.00;;;5.33;64.22;98158.06;5031653;28;20474;-76
2023/04/27 05:35:02;;;;;;;4.37;2.40;;;6.10;70.70;;;6.03;62.33;98162.56;5038381;28;20490;-77
2023/04/27 05:37:30;;;;;;;4.20;2.70;;;6.40;70.70;;;5.77;61.30;98104.78;5045403;28;20484;-78
2023/04/27 05:39:57;;;;;;;3.97;2.70;;;6.60;69.70;;;6.21;61.31;98168.41;5043975;28;20451;-78
2023/04/27 05:42:26;;;;;;;3.67;2.63;;;6.70;69.10;;;6.26;61.25;98172.38;5046085;28;20479;-74
2023/04/27 05:44:53;;;;;;;3.10;2.43;;;6.80;68.60;;;6.51;60.22;98171.13;5040719;28;20629;-74
2023/04/27 05:47:21;;;;;;;4.60;2.50;;;7.00;68.00;;;6.43;60.09;98165.81;5055062;28;20475;-75
2023/04/27 05:49:51;;;;;;;5.43;2.80;;;7.10;67.60;;;6.94;63.05;98164.22;5042036;28;20492;-78
2023/04/27 05:52:18;;;;;;;5.40;3.20;;;7.30;70.80;;;6.52;59.78;98172.78;5036803;28;20518;-77
2023/04/27 05:54:47;;;;;;;2.30;2.10;;;7.20;67.30;;;7.25;61.26;98171.19;5046526;28;20449;-73
2023/04/27 05:57:15;;;;;;;9.40;4.60;;;7.50;69.70;;;6.89;59.31;98172.84;5021226;28;20994;-72
2023/04/27 05:59:43;;;;;;;6.40;2.97;;;7.60;66.80;;;7.59;61.46;98168.84;5027038;28;20455;-74
2023/04/27 06:02:11;;;;;;;4.60;2.90;;;7.80;69.80;;;7.13;57.69;98173.53;5041937;28;20456;-74
2023/04/27 06:04:38;;;;;;;3.93;2.27;;;7.90;65.30;;;6.86;58.53;98177.75;5055263;28;20973;-72
2023/04/27 06:07:09;;;;;;;2.80;2.23;;;7.60;65.00;;;7.14;59.44;98155.53;5029138;28;21162;-75
2023/04/27 06:09:36;;;;;;;4.97;2.10;;;7.70;67.40;;;7.34;57.42;98186.16;5031860;28;20456;-72
2023/04/27 06:12:04;;;;;;;3.70;2.70;;;7.90;65.10;;;6.77;58.68;98183.22;5021394;28;20499;-76
2023/04/27 06:14:31;;;;;;;4.93;2.53;;;7.60;64.70;;;6.54;58.97;98158.34;5033526;28;20473;-74
2023/04/27 06:17:00;;;;;;;4.00;2.63;;;7.50;64.40;;;6.64;59.73;98177.69;5040607;28;21247;-73
2023/04/27 06:19:27;;;;;;;3.57;2.30;;;7.50;64.70;;;7.28;58.33;98169.94;5035342;28;20820;-75
2023/04/27 06:21:55;;;;;;;4.43;3.47;;;7.70;65.40;;;7.45;56.92;98170.53;5034628;28;20452;-76
2023/04/27 06:24:23;;;;;;;3.70;2.73;;;8.00;63.90;;;7.56;56.86;98171.88;5070619;28;21031;-71
2023/04/27 06:26:50;;;;;;;3.50;2.43;;;8.20;63.40;;;8.13;55.09;98170.13;5042269;28;20446;-72
2023/04/27 06:29:17;;;;;;;3.40;2.43;;;8.60;62.80;;;8.08;54.54;98175.22;5053988;28;20442;-72
2023/04/27 06:31:46;;;;;;;4.50;2.33;;;8.80;61.10;;;8.79;55.56;98179.63;5058338;28;20454;-75
2023/04/27 06:34:14;;;;;;;2.63;2.37;;;9.10;62.80;;;8.32;53.43;98122.78;5044458;28;20451;-75
2023/04/27 06:36:41;;;;;;;5.80;2.20;;;9.20;59.80;;;8.76;52.92;98177.34;5042179;28;20513;-78
2023/04/27 06:39:09;;;;;;;2.83;2.63;;;9.30;59.30;;;9.04;52.83;98179.13;5046828;28;20479;-77
2023/04/27 06:41:36;;;;;;;4.50;2.77;;;9.50;59.60;;;9.04;52.13;98184.53;5036056;28;20445;-77
2023/04/27 06:44:03;;;;;;;2.50;2.30;;;9.60;58.30;;;8.72;53.11;98184.19;5062121;28;20477;-75
2023/04/27 06:46:30;;;;;;;2.60;2.40;;;9.50;58.00;;;8.34;53.86;98192.59;5038648;28;20481;-77
2023/04/27 06:48:57;;;;;;;3.70;2.30;;;9.30;58.00;;;8.85;52.67;98185.25;5024887;28;20472;-75
2023/04/27 06:51:27;;;;;;;3.00;2.33;;;9.30;58.00;;;8.88;52.13;98176.78;5020027;28;20517;-75
2023/04/27 06:53:56;;;;;;;3.93;2.30;;;9.40;57.70;;;8.74;52.71;98178.56;5059613;28;20522;-73
2023/04/27 06:56:23;;;;;;;2.90;2.07;;;9.30;57.90;;;8.78;52.26;98183.38;5037373;28;20461;-74
2023/04/27 06:58:50;;;;;;;2.20;2.00;;;9.40;57.20;;;8.77;52.45;98183.56;5053764;28;20494;-74
2023/04/27 07:01:17;;;;;;;3.50;2.80;;;9.40;56.90;;;8.67;52.24;98183.94;5038817;28;21325;-76
2023/04/27 07:03:45;;;;;;;3.13;2.23;;;9.40;56.70;;;8.55;52.89;98185.50;5044436;28;20479;-78
2023/04/27 07:06:12;;;;;;;4.63;3.67;;;9.30;56.60;;;8.97;51.04;98189.03;5054021;28;20584;-78
2023/04/27 07:08:40;;;;;;;4.07;2.80;;;9.50;56.20;;;8.48;51.70;98180.91;5064868;28;20449;-76
2023/04/27 07:11:08;;;;;;;3.60;2.97;;;9.30;55.70;;;8.66;51.21;98176.06;5054228;28;20458;-77
2023/04/27 07:13:35;;;;;;;3.07;2.10;;;9.40;55.50;;;9.32;50.02;98182.75;5052642;28;20453;-78
2023/04/27 07:16:02;;;;;;;6.00;2.53;;;9.60;55.70;;;9.54;49.20;98172.63;5029323;28;20547;-78
2023/04/27 07:18:30;;;;;;;5.73;3.13;;;9.80;54.50;;;10.24;46.67;98170.59;5029807;28;20452;-75
2023/04/27 07:20:57;;;;;;;3.13;2.47;;;10.40;52.60;;;10.06;46.86;98177.41;5057241;28;20441;-73
2023/04/27 07:23:24;;;;;;;8.00;2.60;;;10.50;51.70;;;10.40;46.54;98175.53;5030032;28;20528;-78
2023/04/27 07:25:53;;;;;;;3.50;2.40;;;10.70;51.60;;;10.43;46.51;98175.16;5026486;28;20523;-75
2023/04/27 07:28:20;;;;;;;2.90;2.57;;;10.90;51.40;;;10.37;47.46;98178.63;5029488;28;20559;-79
2023/04/27 07:30:48;;;;;;;3.83;2.63;;;11.00;51.30;;;10.53;46.97;98184.66;5053447;28;20476;-73
2023/04/27 07:33:15;;;;;;;2.83;2.63;;;11.20;51.20;;;10.75;47.03;98191.47;5022719;28;20477;-79
2023/04/27 07:35:44;;;;;;;4.07;3.00;;;11.30;51.10;;;10.20;45.17;98195.28;5043064;28;20449;-75
2023/04/27 07:38:11;;;;;;;3.50;2.60;;;11.20;48.90;;;10.55;45.40;98191.53;5036220;28;20452;-78
2023/04/27 07:40:38;;;;;;;3.77;2.37;;;11.20;49.30;;;11.08;44.03;98183.47;5026298;28;20453;-78
2023/04/27 07:43:08;;;;;;;2.10;1.97;;;11.40;48.90;;;11.61;43.34;98187.75;5044860;28;20462;-73
2023/04/27 07:45:36;;;;;;;2.97;2.23;;;11.80;48.70;;;12.53;41.97;98196.44;5031916;28;20480;-74
2023/04/27 07:48:03;;;;;;;3.90;2.20;;;12.40;48.60;;;12.31;41.47;98194.13;5049184;28;20477;-73
2023/04/27 07:50:31;;;;;;;2.30;2.10;;;12.70;47.40;;;12.03;42.00;98187.28;5050846;28;20857;-72
2023/04/27 07:52:58;;;;;;;3.20;2.13;;;12.70;46.90;;;11.48;42.87;98194.09;5057072;28;20442;-75
2023/04/27 07:55:27;;;;;;;4.20;2.13;;;12.40;46.70;;;12.52;40.85;98195.59;5052129;28;20456;-78
2023/04/27 07:57:55;;;;;;;2.40;2.20;;;12.70;46.80;;;12.97;39.50;98202.66;5046558;28;20818;-74
2023/04/27 08:00:25;;;;;;;3.43;2.60;;;13.10;45.90;;;13.30;38.65;98190.53;5051595;28;21173;-79
2023/04/27 08:02:54;;;;;;;6.10;3.00;;;13.60;45.20;;;13.22;39.16;98198.16;5045971;28;20479;-75
2023/04/27 08:05:21;;;;;;;2.23;2.10;;;13.60;45.00;;;13.37;39.21;98192.34;5055614;28;20467;-77
2023/04/27 08:07:48;;;;;;;2.50;1.93;;;13.60;45.10;;;13.53;37.81;98197.16;5027016;28;20530;-77
2023/04/27 08:10:16;;;;;;;3.00;2.03;;;14.00;44.20;;;13.57;38.03;98198.38;5046295;28;20445;-79
2023/04/27 08:12:43;;;;;;;5.10;2.47;;;14.10;44.20;;;13.16;37.23;98206.16;5052791;28;20457;-77
2023/04/27 08:15:11;;;;;;;5.63;2.17;;;13.90;42.80;;;12.91;37.78;98202.72;5047063;28;20708;-77
2023/04/27 08:17:40;;;;;;;3.83;2.20;;;13.50;42.50;;;13.52;36.44;98209.06;5036004;28;20447;-77
2023/04/27 08:20:10;;;;;;;2.37;2.10;;;13.70;42.30;;;13.39;35.60;98201.06;5045611;28;20484;-74
2023/04/27 08:22:37;;;;;;;3.10;1.80;;;14.00;41.40;;;12.72;36.66;98203.53;5047453;28;20487;-75
2023/04/27 08:25:07;;;;;;;6.03;2.33;;;13.40;41.10;;;13.28;35.93;98216.25;5037145;28;20470;-78
2023/04/27 08:27:36;;;;;;;2.90;2.53;;;13.70;41.30;;;12.26;38.10;98202.09;5033357;28;20457;-77
2023/04/27 08:30:05;;;;;;;3.10;2.57;;;13.20;41.30;;;12.96;37.13;98203.66;5045865;28;20463;-72
2023/04/27 08:32:33;;;;;;;2.60;2.40;;;13.30;41.60;;;12.93;37.28;98206.84;5050155;28;20631;-75
2023/04/27 08:35:03;;;;;;;2.97;2.67;;;13.30;41.70;;;12.96;37.54;98194.72;5027838;28;20451;-78
2023/04/27 08:37:30;;;;;;;3.50;2.30;;;13.50;42.10;;;13.42;36.68;98190.59;5025454;28;20446;-73
2023/04/27 08:39:58;;;;;;;3.13;2.00;;;13.80;42.10;;;13.23;37.27;98192.50;5037928;28;20458;-74
2023/04/27 08:42:26;;;;;;;4.63;2.57;;;13.90;42.30;;;13.18;36.96;98195.09;5045008;28;20447;-73
2023/04/27 08:44:53;;;;;;;4.43;2.70;;;13.70;41.70;;;12.54;37.80;98192.69;5051398;28;20487;-77
2023/04/27 08:47:20;;;;;;;5.93;2.90;;;13.40;41.30;;;12.77;37.73;98189.31;5033415;28;20473;-77
2023/04/27 08:49:47;;;;;;;2.43;2.23;;;13.30;42.00;;;12.57;37.71;98192.22;5033167;28;20455;-73
2023/04/27 08:52:17;;;;;;;2.50;2.17;;;13.10;41.50;;;12.36;38.18;98191.59;5054259;28;20551;-76
2023/04/27 08:54:44;;;;;;;4.60;2.80;;;12.90;41.60;;;11.99;38.11;98118.34;5034123;28;20920;-75
2023/04/27 08:57:12;;;;;;;4.20;2.70;;;12.90;41.70;;;12.38;37.88;98184.06;5039206;28;20441;-78
2023/04/27 08:59:40;;;;;;;4.00;3.30;;;12.80;41.30;;;12.23;39.05;98176.28;5038906;28;20501;-75
2023/04/27 09:02:18;;;;;;;7.30;2.93;;;12.70;41.80;;;12.33;38.25;98183.91;5046190;28;20455;-75
2023/04/27 09:04:46;;;;;;;3.23;2.90;;;12.80;41.90;;;12.37;38.18;98187.84;5053904;28;20581;-76
2023/04/27 09:07:17;;;;;;;4.07;2.73;;;12.80;41.40;;;12.09;37.96;98186.41;5047053;28;20568;-76
2023/04/27 09:09:47;;;;;;;3.40;2.70;;;12.70;40.90;;;12.24;37.39;98179.81;5048447;28;20453;-76
2023/04/27 09:12:16;;;;;;;4.53;2.87;;;12.70;40.80;;;12.65;36.98;98178.38;5051472;28;20454;-71
2023/04/27 09:14:44;;;;;;;3.13;2.77;;;13.00;41.10;;;12.99;36.87;98181.53;5034617;28;20465;-75
2023/04/27 09:17:11;;;;;;;4.50;2.73;;;13.20;41.30;;;12.44;37.36;98177.75;5061587;28;20724;-75
2023/04/27 09:19:38;;;;;;;14.97;8.80;;;13.10;40.70;;;12.57;37.42;98171.34;5027253;28;20458;-76
2023/04/27 09:22:09;;;;;;;2.83;2.50;;;13.10;41.00;;;12.38;37.27;98177.81;5046845;28;20583;-77
2023/04/27 09:24:38;;;;;;;3.20;2.90;;;12.90;40.70;;;12.50;37.66;98170.59;5039671;28;20480;-74
2023/04/27 09:27:07;;;;;;;3.30;2.87;;;13.00;41.00;;;12.38;37.57;98120.91;5039113;28;20867;-76
2023/04/27 09:29:36;;;;;;;4.50;3.20;;;13.10;41.20;;;12.74;37.24;98160.75;5046922;28;20718;-74
2023/04/27 09:32:16;;;;;;;3.43;3.07;;;13.20;41.10;;;12.50;37.01;98151.63;5043485;28;20468;-75
2023/04/27 09:34:43;;;;;;;5.10;2.73;;;13.20;40.60;;;12.90;36.96;98163.91;5053874;28;20449;-77
2023/04/27 09:37:11;;;;;;;4.73;3.47;;;13.20;41.00;;;13.06;36.56;98156.22;5051308;28;20810;-75
2023/04/27 09:39:41;;;;;;;4.70;3.77;;;13.30;40.90;;;13.03;36.04;98155.63;5063141;28;20443;-77
2023/04/27 09:42:09;;;;;;;4.03;3.60;;;13.40;40.20;;;12.59;36.53;98111.50;5045789;28;20452;-74
2023/04/27 09:44:36;;;;;;;3.70;2.63;;;13.30;40.40;;;12.68;36.73;98148.13;5035097;28;20453;-77
2023/04/27 09:47:04;;;;;;;4.20;3.13;;;13.20;40.40;;;12.80;36.27;98140.06;5045323;28;20439;-75
2023/04/27 09:49:35;;;;;;;6.10;2.77;;;13.30;40.00;;;12.49;36.40;98146.44;5042773;28;20871;-77
2023/04/27 09:52:03;;;;;;;3.73;2.93;;;13.10;40.10;;;12.83;35.70;98142.28;5066600;28;20809;-78
2023/04/27 09:54:33;;;;;;;5.30;3.40;;;13.20;39.90;;;12.72;36.92;98134.91;5049811;28;20526;-78
2023/04/27 09:57:14;;;;;;;4.30;3.60;;;13.30;40.40;;;12.91;36.67;98143.88;5033588;28;20463;-75
2023/04/27 10:00:06;;;;;;;3.67;3.27;;;13.30;40.60;;;12.91;36.93;98138.44;5053498;28;20487;-74
2023/04/27 10:02:45;;;;;;;3.57;2.43;;;13.40;40.50;;;13.24;37.02;98134.47;5053870;28;20448;-72
2023/04/27 10:05:34;;;;;;;3.37;2.63;;;13.50;41.10;;;13.62;36.06;98128.97;5045499;28;20472;-76
2023/04/27 10:08:04;;;;;;;4.10;3.30;;;13.90;40.80;;;14.17;35.58;98134.09;5063113;28;20501;-74
2023/04/27 10:10:43;;;;;;;4.13;2.83;;;14.30;41.10;;;14.55;34.91;98131.94;5045817;28;20451;-74
2023/04/27 10:13:22;;;;;;;4.43;3.10;;;14.70;40.50;;;15.22;33.32;98134.41;5037791;28;20526;-77
2023/04/27 10:15:50;;;;;;;3.83;2.93;;;15.30;39.90;;;15.35;32.59;98141.44;5046093;28;21152;-75
2023/04/27 10:18:27;;;;;;;3.50;2.90;;;15.60;39.40;;;15.06;32.99;98128.69;5039530;28;20694;-75
2023/04/27 10:20:54;;;;;;;3.10;2.80;;;15.70;39.00;;;15.20;32.18;98140.09;5054685;28;20496;-74
2023/04/27 10:23:26;;;;;;;3.20;3.00;;;15.70;38.60;;;15.03;32.12;98096.53;5045667;28;20936;-75
2023/04/27 10:25:54;;;;;;;2.87;2.63;;;15.70;38.70;;;15.32;32.51;98121.00;5055705;28;20471;-76
2023/04/27 10:28:23;;;;;;;4.30;3.13;;;15.60;39.10;;;15.57;31.99;98125.25;5053150;28;20459;-76
2023/04/27 10:30:50;;;;;;;5.40;3.47;;;15.90;39.00;;;15.50;32.13;98095.44;5044508;28;20715;-75
2023/04/27 10:33:20;;;;;;;5.03;3.37;;;16.00;38.60;;;15.18;32.12;98068.75;5019365;28;20464;-76